Station Historical Data
Daily Summary for April 17, 2019 Units:  Metric    English   Both
« Previous Day
Next Day »
Daily Weekly Monthly Yearly Custom
  High: Low: Average:
Temperature: -17.8 °C -12.4 °C -9 °C
Dew Point: -17.8 °C -14.6 °C -13.3 °C
Humidity: Humidity % 36 % 62 %
Wind Speed: 0 km/h 0 km/h 6.6 km/h
Wind Gust: 0 km/h - -
Wind:- - WSW
Pressure: 0 hPa 34439 hPa -
Precipitation: 0 mm    
Historical Graphs
 
 
Tabular Data for April 17, 2019
Time Temperature Dew Point Pressure Wind Wind Speed Wind Gust Humidity Rainfall Rate (Hourly) solar Conditions
-17.8 °C -17.8 °C 0 hPa Calm     Humidity % 0 mm SolarRadiationWatts/m^2 W/m2 Conditions
00:03 -9.6 °C -13.1 °C 34469.5 hPa WNW 6 km/h 2.9 km/h 66 % 0 mm 0.00 W/m2 FEW
00:09 -9.6 °C -13.1 °C 34466.1 hPa WNW 6 km/h 3.7 km/h 66 % 0 mm 0.00 W/m2 FEW
00:13 -9.7 °C -13.2 °C 34466.1 hPa WNW 6 km/h 2.3 km/h 66 % 0 mm 0.00 W/m2 FEW
00:18 -9.7 °C -13.1 °C 34469.5 hPa WNW 6 km/h 3.4 km/h 67 % 0 mm 0.00 W/m2 FEW
00:23 -9.8 °C -13.1 °C 34466.1 hPa WNW 6 km/h 3.1 km/h 67 % 0 mm 0.00 W/m2 FEW
00:28 -9.8 °C -13.2 °C 34466.1 hPa WNW 6 km/h 3.4 km/h 67 % 0 mm 0.00 W/m2 FEW
00:33 -9.9 °C -13.1 °C 34466.1 hPa WNW 6 km/h 2.9 km/h 69 % 0 mm 0.00 W/m2 FEW
00:38 -10.1 °C -13.2 °C 34466.1 hPa WNW 3.1 km/h   69 % 0 mm 0.00 W/m2 FEW
00:43 -10.2 °C -13.2 °C 34466.1 hPa Calm     70 % 0 mm 0.00 W/m2 FEW
00:48 -10.2 °C -13.1 °C 34466.1 hPa WNW 5.1 km/h 2.9 km/h 71 % 0 mm 0.00 W/m2 FEW
00:54 -10.3 °C -13.1 °C 34466.1 hPa WNW 6 km/h 2.9 km/h 72 % 0 mm 0.00 W/m2 FEW
00:58 -10.4 °C -13.1 °C 34469.5 hPa WNW 6 km/h 3.1 km/h 72 % 0 mm 0.00 W/m2 FEW
01:03 -10.4 °C -13 °C 34469.5 hPa WNW 6 km/h 2.9 km/h 73 % 0 mm 0.00 W/m2 FEW
01:09 -10.4 °C -13.1 °C 34469.5 hPa WNW 3.1 km/h 1.8 km/h 73 % 0 mm 0.00 W/m2 FEW
01:13 -10.5 °C -13.2 °C 34469.5 hPa WNW 6 km/h 3.9 km/h 73 % 0 mm 0.00 W/m2 FEW
01:18 -10.6 °C -13.1 °C 34466.1 hPa WNW 6 km/h 2.3 km/h 74 % 0 mm 0.00 W/m2 FEW
01:24 -10.6 °C -13 °C 34466.1 hPa WNW 6 km/h 4.3 km/h 75 % 0 mm 0.00 W/m2 FEW
01:28 -10.7 °C -13.1 °C 34469.5 hPa WNW 6 km/h 3.7 km/h 75 % 0 mm 0.00 W/m2 FEW
01:33 -10.7 °C -13.2 °C 34469.5 hPa WNW 3.1 km/h 0.8 km/h 75 % 0 mm 0.00 W/m2 FEW
01:39 -10.8 °C -13.1 °C 34469.5 hPa Calm     76 % 0 mm 0.00 W/m2 FEW
01:44 -10.9 °C -13.2 °C 34469.5 hPa WNW 3.1 km/h 1.8 km/h 76 % 0 mm 0.00 W/m2 FEW
01:48 -10.9 °C -13.2 °C 34469.5 hPa WNW 5.1 km/h 2.6 km/h 76 % 0 mm 0.00 W/m2 FEW
01:54 -10.9 °C -13.2 °C 34472.9 hPa Calm     76 % 0 mm 0.00 W/m2 FEW
01:59 -11 °C -13.2 °C 34469.5 hPa Calm     77 % 0 mm 0.00 W/m2 FEW
02:03 -11 °C -13.2 °C 34469.5 hPa Calm     77 % 0 mm 0.00 W/m2 FEW
02:09 -11.1 °C -13.2 °C 34466.1 hPa Calm     78 % 0 mm 0.00 W/m2 FEW
02:14 -11.2 °C -13.2 °C 34469.5 hPa Calm     78 % 0 mm 0.00 W/m2 FEW
02:19 -11.2 °C -13.2 °C 34466.1 hPa Calm     79 % 0 mm 0.00 W/m2 FEW
02:24 -11.2 °C -13.2 °C 34462.7 hPa Calm     79 % 0 mm 0.00 W/m2 FEW
02:29 -11.3 °C -13.2 °C 34462.7 hPa Calm     80 % 0 mm 0.00 W/m2 FEW
02:34 -11.3 °C -13.2 °C 34466.1 hPa WNW 6 km/h 3.7 km/h 79 % 0 mm 0.00 W/m2 FEW
02:38 -11.3 °C -13.2 °C 34469.5 hPa WNW 6 km/h 2.6 km/h 79 % 0 mm 0.00 W/m2 FEW
02:44 -11.3 °C -13.2 °C 34472.9 hPa WNW 6 km/h 2.9 km/h 79 % 0 mm 0.00 W/m2 FEW
02:49 -11.3 °C -13.2 °C 34476.3 hPa Calm     79 % 0 mm 0.00 W/m2 FEW
02:53 -11.2 °C -13.2 °C 34472.9 hPa Calm     79 % 0 mm 0.00 W/m2 FEW
02:58 -11.2 °C -13.2 °C 34476.3 hPa Calm     79 % 0 mm 0.00 W/m2 FEW
03:03 -11.3 °C -13.2 °C 34476.3 hPa WNW 9 km/h 6 km/h 79 % 0 mm 0.00 W/m2 FEW
03:08 -11.3 °C -13.2 °C 34469.5 hPa WNW 9 km/h 6.4 km/h 79 % 0 mm 0.00 W/m2 FEW
03:13 -11.3 °C -13.2 °C 34472.9 hPa West 9 km/h 4.7 km/h 79 % 0 mm 0.00 W/m2 FEW
03:18 -11.3 °C -13.3 °C 34476.3 hPa West 10.3 km/h 7.7 km/h 79 % 0 mm 0.00 W/m2 FEW
03:23 -11.4 °C -13.2 °C 34479.6 hPa West 9 km/h 5 km/h 80 % 0 mm 0.00 W/m2 FEW
03:28 -11.4 °C -13.3 °C 34483 hPa Calm     80 % 0 mm 0.00 W/m2 FEW
03:33 -11.4 °C -13.3 °C 34483 hPa West 6 km/h 3.1 km/h 80 % 0 mm 0.00 W/m2 FEW
03:38 -11.5 °C -13.3 °C 34483 hPa West 3.1 km/h 2.1 km/h 80 % 0 mm 0.00 W/m2 FEW
03:44 -11.5 °C -13.4 °C 34479.6 hPa West 6 km/h 0.8 km/h 80 % 0 mm 0.00 W/m2 FEW
03:48 -11.6 °C -13.4 °C 34479.6 hPa Calm     80 % 0 mm 0.00 W/m2 FEW
03:53 -11.6 °C -13.3 °C 34479.6 hPa Calm     81 % 0 mm 0.00 W/m2 FEW
03:59 -11.6 °C -13.4 °C 34479.6 hPa Calm     81 % 0 mm 0.00 W/m2 FEW
04:03 -11.6 °C -13.4 °C 34476.3 hPa Calm     81 % 0 mm 0.00 W/m2 FEW
04:08 -11.7 °C -13.4 °C 34479.6 hPa Calm     81 % 0 mm 0.00 W/m2 FEW
04:14 -11.7 °C -13.3 °C 34476.3 hPa West 3.1 km/h 1.3 km/h 82 % 0 mm 0.00 W/m2 FEW
04:19 -11.7 °C -13.3 °C 34472.9 hPa West 6 km/h 3.7 km/h 82 % 0 mm 0.00 W/m2 FEW
04:23 -11.7 °C -13.4 °C 34472.9 hPa West 9 km/h 4.2 km/h 82 % 0 mm 0.00 W/m2 FEW
04:29 -11.8 °C -13.4 °C 34472.9 hPa West 9 km/h 5.6 km/h 82 % 0 mm 0.00 W/m2 FEW
04:34 -11.8 °C -13.3 °C 34472.9 hPa West 10.3 km/h 7.7 km/h 83 % 0 mm 0.00 W/m2 FEW
04:38 -11.8 °C -13.4 °C 34472.9 hPa West 10.3 km/h 6.3 km/h 83 % 0 mm 0.00 W/m2 FEW
04:44 -11.8 °C -13.5 °C 34472.9 hPa West 9 km/h 4.3 km/h 82 % 0 mm 0.00 W/m2 FEW
04:49 -11.9 °C -13.5 °C 34472.9 hPa West 6 km/h 2.6 km/h 82 % 0 mm 0.00 W/m2 FEW
04:54 -11.9 °C -13.5 °C 34469.5 hPa West 3.1 km/h 0.5 km/h 82 % 0 mm 0.00 W/m2 FEW
04:59 -11.9 °C -13.6 °C 34472.9 hPa West 6 km/h 1.3 km/h 82 % 0 mm 0.00 W/m2 FEW
05:04 -11.9 °C -13.6 °C 34469.5 hPa West 6 km/h 2.3 km/h 82 % 0 mm 0.00 W/m2 FEW
05:09 -12 °C -13.6 °C 34469.5 hPa West 9 km/h 3.9 km/h 82 % 0 mm 0.00 W/m2 FEW
05:14 -12 °C -13.5 °C 34469.5 hPa Calm     83 % 0 mm 0.00 W/m2 FEW
05:19 -12 °C -13.6 °C 34469.5 hPa West 6 km/h 3.7 km/h 83 % 0 mm 0.00 W/m2 FEW
05:23 -12.1 °C -13.6 °C 34469.5 hPa West 6 km/h 3.4 km/h 83 % 0 mm 0.00 W/m2 FEW
05:28 -12.1 °C -13.6 °C 34469.5 hPa West 6 km/h 2.6 km/h 83 % 0 mm 0.00 W/m2 FEW
05:33 -12.1 °C -13.6 °C 34469.5 hPa West 6 km/h 2.3 km/h 83 % 0 mm 0.00 W/m2 FEW
05:38 -12.1 °C -13.7 °C 34472.9 hPa West 6 km/h 2.9 km/h 83 % 0 mm 0.00 W/m2 FEW
05:43 -12.2 °C -13.7 °C 34476.3 hPa West 5.1 km/h 2.6 km/h 83 % 0 mm 0.00 W/m2 FEW
05:48 -12.2 °C -13.6 °C 34476.3 hPa West 3.1 km/h 2.1 km/h 84 % 0 mm 0.00 W/m2 FEW
05:53 -12.2 °C -13.7 °C 34479.6 hPa West 6 km/h 3.9 km/h 84 % 0 mm 0.00 W/m2 FEW
05:58 -12.3 °C -13.7 °C 34483 hPa West 9 km/h 3.7 km/h 84 % 0 mm 0.00 W/m2 FEW
06:03 -12.3 °C -13.7 °C 34479.6 hPa West 6 km/h 4.7 km/h 85 % 0 mm 0.00 W/m2 FEW
06:08 -12.3 °C -13.7 °C 34483 hPa West 6 km/h 3.7 km/h 85 % 0 mm 0.00 W/m2 FEW
06:14 -12.3 °C -13.7 °C 34483 hPa Calm     85 % 0 mm 0.00 W/m2 FEW
06:18 -12.3 °C -13.7 °C 34486.4 hPa Calm     85 % 0 mm 0.00 W/m2 FEW
06:23 -12.4 °C -13.7 °C 34486.4 hPa West 6 km/h 2.9 km/h 85 % 0 mm 0.00 W/m2 FEW
06:28 -12.4 °C -13.7 °C 34486.4 hPa West 3.1 km/h 1.3 km/h 85 % 0 mm 0.00 W/m2 FEW
06:34 -12.4 °C -13.7 °C 34489.8 hPa Calm     86 % 0 mm 0.00 W/m2 FEW
06:38 -12.4 °C -13.7 °C 34489.8 hPa Calm     86 % 0 mm 5.00 W/m2 FEW
06:43 -12.4 °C -13.7 °C 34489.8 hPa Calm     86 % 0 mm 7.00 W/m2 FEW
06:49 -12.4 °C -13.7 °C 34489.8 hPa Calm     86 % 0 mm 11.00 W/m2 SCT
06:53 -12.4 °C -13.7 °C 34493.2 hPa Calm     86 % 0 mm 12.00 W/m2 SCT
06:58 -12.4 °C -13.7 °C 34496.6 hPa Calm     86 % 0 mm 14.00 W/m2 BKN
07:04 -12.4 °C -13.7 °C 34496.6 hPa Calm     86 % 0 mm 19.00 W/m2 SCT
07:09 -12.4 °C -13.7 °C 34500 hPa Calm     86 % 0 mm 26.00 W/m2 SCT
07:13 -12.4 °C -13.7 °C 34503.3 hPa Calm     86 % 0 mm 33.00 W/m2 SCT
07:19 -12.4 °C -13.7 °C 34503.3 hPa Calm     86 % 0 mm 40.00 W/m2 SCT
07:24 -12.4 °C -13.7 °C 34503.3 hPa Calm     86 % 0 mm 51.00 W/m2 SCT
07:28 -12.4 °C -13.7 °C 34506.7 hPa Calm     86 % 0 mm 63.00 W/m2 SCT
07:34 -12.4 °C -13.6 °C 34506.7 hPa Calm     86 % 0 mm 74.00 W/m2 SCT
07:39 -12.3 °C -13.5 °C 34510.1 hPa Calm     86 % 0 mm 88.00 W/m2 SCT
07:44 -12.2 °C -13.4 °C 34510.1 hPa Calm     86 % 0 mm 97.00 W/m2 SCT
07:49 -12.1 °C -13.4 °C 34510.1 hPa Calm     85 % 0 mm 105.00 W/m2 SCT
07:54 -11.9 °C -13.3 °C 34510.1 hPa Calm     84 % 0 mm 113.00 W/m2 SCT
07:58 -11.8 °C -13.3 °C 34513.5 hPa West 5.1 km/h 0.3 km/h 83 % 0 mm 120.00 W/m2 SCT
08:03 -11.8 °C -13.3 °C 34513.5 hPa NW 9 km/h 6 km/h 83 % 0 mm 128.00 W/m2 SCT
08:08 -11.7 °C -13.2 °C 34513.5 hPa NW 9 km/h 4.3 km/h 83 % 0 mm 137.00 W/m2 SCT
08:13 -11.6 °C -13.2 °C 34510.1 hPa NW 6 km/h 4.7 km/h 83 % 0 mm 141.00 W/m2 SCT
08:19 -11.6 °C -13.3 °C 34516.9 hPa NW 9 km/h 5.1 km/h 82 % 0 mm 149.00 W/m2 SCT
08:23 -11.6 °C -13.2 °C 34513.5 hPa NW 9 km/h 6 km/h 82 % 0 mm 167.00 W/m2 SCT
08:28 -11.6 °C -13.3 °C 34516.9 hPa NNW 10.3 km/h 7.2 km/h 81 % 0 mm 190.00 W/m2 SCT
08:34 -11.5 °C -13.3 °C 34516.9 hPa NNW 9 km/h 5.5 km/h 80 % 0 mm 211.00 W/m2 SCT
08:38 -11.4 °C -13.3 °C 34516.9 hPa NNW 6 km/h 3.4 km/h 80 % 0 mm 227.00 W/m2 FEW
08:43 -11.3 °C -13.3 °C 34516.9 hPa North 9 km/h 4.7 km/h 79 % 0 mm 236.00 W/m2 FEW
08:48 -11.3 °C -13.3 °C 34516.9 hPa North 9 km/h 5.1 km/h 79 % 0 mm 234.00 W/m2 FEW
08:54 -11.3 °C -13.2 °C 34516.9 hPa North 6 km/h 4.3 km/h 79 % 0 mm 244.00 W/m2 FEW
08:58 -11.2 °C -13.5 °C 34520.3 hPa North 9 km/h 5.5 km/h 76 % 0 mm 264.00 W/m2 FEW
09:03 -11.1 °C -13.5 °C 34523.7 hPa North 6 km/h 4.2 km/h 75 % 0 mm 299.00 W/m2 FEW
09:09 -11 °C -13.4 °C 34520.3 hPa North 9 km/h 5.1 km/h 75 % 0 mm 330.00 W/m2 FEW
09:13 -10.9 °C -13.4 °C 34520.3 hPa North 6 km/h 4.3 km/h 75 % 0 mm 343.00 W/m2 FEW
09:18 -10.7 °C -13.2 °C 34520.3 hPa North 7.7 km/h 2.9 km/h 75 % 0 mm 357.00 W/m2 FEW
09:24 -10.6 °C -13.2 °C 34520.3 hPa North 9 km/h 2.3 km/h 73 % 0 mm 374.00 W/m2 FEW
09:28 -10.5 °C -13.1 °C 34520.3 hPa North 9 km/h 4.7 km/h 73 % 0 mm 387.00 W/m2 FEW
09:33 -10.5 °C -13.2 °C 34520.3 hPa North 9 km/h 5 km/h 73 % 0 mm 401.00 W/m2 FEW
09:39 -10.4 °C -13.1 °C 34520.3 hPa North 9 km/h 4.3 km/h 73 % 0 mm 418.00 W/m2 FEW
09:44 -10.3 °C -12.9 °C 34520.3 hPa North 6 km/h 2.3 km/h 73 % 0 mm 432.00 W/m2 FEW
09:48 -10.2 °C -13 °C 34520.3 hPa North 9 km/h 4.2 km/h 71 % 0 mm 445.00 W/m2 FEW
09:54 -10.1 °C -13 °C 34520.3 hPa North 9 km/h 5.1 km/h 71 % 0 mm 459.00 W/m2 FEW
09:59 -10.1 °C -12.9 °C 34520.3 hPa North 9 km/h 7.7 km/h 71 % 0 mm 473.00 W/m2 CLR
10:03 -9.9 °C -12.8 °C 34520.3 hPa North 6 km/h 2.3 km/h 71 % 0 mm 487.00 W/m2 CLR
10:09 -9.8 °C -12.8 °C 34523.7 hPa North 9 km/h 3.4 km/h 70 % 0 mm 497.00 W/m2 CLR
10:12 -9.8 °C -12.9 °C 34523.7 hPa North 3.1 km/h 1.8 km/h 69 % 0 mm 508.00 W/m2 CLR
10:18 -9.7 °C -12.7 °C 34523.7 hPa North 9 km/h 5.6 km/h 70 % 0 mm 520.00 W/m2 CLR
10:24 -9.6 °C -12.6 °C 34523.7 hPa NNW 10.3 km/h 6.4 km/h 70 % 0 mm 527.00 W/m2 CLR
10:28 -9.6 °C -12.6 °C 34523.7 hPa NNW 9 km/h 3.9 km/h 70 % 0 mm 533.00 W/m2 CLR
10:33 -9.4 °C -12.7 °C 34527 hPa NNW 5.1 km/h 2.6 km/h 68 % 0 mm 536.00 W/m2 CLR
10:39 -9.2 °C -12.4 °C 34527 hPa NW 6 km/h 0.8 km/h 68 % 0 mm 533.00 W/m2 FEW
10:44 -9 °C -12.4 °C 34527 hPa East 6 km/h 3.9 km/h 67 % 0 mm 531.00 W/m2 FEW
10:48 -8.8 °C -12.3 °C 34527 hPa SSE 9 km/h 3.7 km/h 66 % 0 mm 527.00 W/m2 FEW
10:54 -8.6 °C -12.3 °C 34530.4 hPa SSW 12.9 km/h 7.7 km/h 65 % 0 mm 520.00 W/m2 FEW
10:59 -8.7 °C -12.3 °C 34527 hPa SW 10.3 km/h 8 km/h 66 % 0 mm 515.00 W/m2 FEW
11:03 -8.5 °C -12.2 °C 34530.4 hPa NW 9 km/h 4.3 km/h 65 % 0 mm 515.00 W/m2 FEW
11:09 -8.4 °C -12.4 °C 34530.4 hPa SW 15.6 km/h 8.9 km/h 63 % 0 mm 522.00 W/m2 FEW
11:14 -8.5 °C -12.6 °C 34530.4 hPa SW 15.6 km/h 8.9 km/h 62 % 0 mm 529.00 W/m2 FEW
11:19 -8.5 °C -12.6 °C 34530.4 hPa SSW 15.6 km/h 10.6 km/h 62 % 0 mm 554.00 W/m2 FEW
11:23 -8.5 °C -12.6 °C 34527 hPa NNW 9 km/h 4.2 km/h 62 % 0 mm 541.00 W/m2 FEW
11:29 -8.4 °C -12.4 °C 34527 hPa West 10.3 km/h 7.7 km/h 62 % 0 mm 606.00 W/m2 FEW
11:34 -8.2 °C -12.4 °C 34523.7 hPa SW 15.6 km/h 10.1 km/h 61 % 0 mm 640.00 W/m2 FEW
11:38 -8.2 °C -12.9 °C 34520.3 hPa SSW 12.9 km/h 9 km/h 57 % 0 mm 671.00 W/m2 FEW
11:44 -8.1 °C -12.4 °C 34520.3 hPa SW 12.9 km/h 8.2 km/h 60 % 0 mm 708.00 W/m2 CLR
11:49 -7.9 °C -12.2 °C 34520.3 hPa SW 9 km/h 5.1 km/h 61 % 0 mm 712.00 W/m2 CLR
11:54 -7.7 °C -12.1 °C 34520.3 hPa SW 5.1 km/h 0.8 km/h 60 % 0 mm 719.00 W/m2 CLR
11:58 -7.7 °C -12.3 °C 34516.9 hPa ENE 7.7 km/h 3.4 km/h 59 % 0 mm 728.00 W/m2 CLR
12:03 -7.7 °C -12.8 °C 34520.3 hPa North 9 km/h 6.8 km/h 55 % 0 mm 719.00 W/m2 CLR
12:08 -7.8 °C -12.9 °C 34520.3 hPa ENE 12.9 km/h 9.8 km/h 55 % 0 mm 751.00 W/m2 CLR
12:13 -7.8 °C -12.8 °C 34520.3 hPa ENE 9 km/h 4.7 km/h 56 % 0 mm 742.00 W/m2 CLR
12:18 -7.4 °C -12.4 °C 34516.9 hPa West 12.9 km/h 3.9 km/h 56 % 0 mm 745.00 W/m2 CLR
12:23 -7.5 °C -12.3 °C 34513.5 hPa North 15.6 km/h 12.4 km/h 57 % 0 mm 766.00 W/m2 CLR
12:29 -7.4 °C -12.1 °C 34513.5 hPa SSE 6 km/h 3.4 km/h 58 % 0 mm 768.00 W/m2 CLR
12:33 -7.3 °C -12.1 °C 34510.1 hPa WSW 15.6 km/h 11.9 km/h 57 % 0 mm 780.00 W/m2 CLR
12:38 -7.3 °C -12.3 °C 34510.1 hPa West 18.2 km/h 11.1 km/h 56 % 0 mm 777.00 W/m2 CLR
12:44 -7.3 °C -12.1 °C 34506.7 hPa WSW 15.6 km/h 7.7 km/h 57 % 0 mm 777.00 W/m2 CLR
12:48 -7.2 °C -12.1 °C 34506.7 hPa WSW 10.3 km/h 6.8 km/h 57 % 0 mm 779.00 W/m2 CLR
12:53 -7.2 °C -12.2 °C 34500 hPa West 20.9 km/h 13.7 km/h 56 % 0 mm 773.00 W/m2 CLR
12:59 -7.2 °C -12.2 °C 34500 hPa West 9 km/h 2.6 km/h 56 % 0 mm 788.00 W/m2 CLR
13:03 -7.1 °C -12.4 °C 34500 hPa West 15.6 km/h 6 km/h 54 % 0 mm 789.00 W/m2 CLR
13:08 -7.1 °C -12.6 °C 34496.6 hPa WSW 6 km/h 1.6 km/h 53 % 0 mm 795.00 W/m2 CLR
13:14 -7.1 °C -12.5 °C 34496.6 hPa West 6 km/h 2.1 km/h 53 % 0 mm 800.00 W/m2 CLR
13:19 -6.8 °C -12.4 °C 34496.6 hPa SSW 11.9 km/h 7.2 km/h 52 % 0 mm 809.00 W/m2 CLR
13:23 -6.7 °C -12.7 °C 34493.2 hPa WSW 18.2 km/h 12.2 km/h 50 % 0 mm 793.00 W/m2 CLR
13:29 -6.7 °C -13.2 °C 34493.2 hPa WNW 23.8 km/h 17.9 km/h 47 % 0 mm 786.00 W/m2 CLR
13:34 -6.8 °C -13.3 °C 34489.8 hPa NW 9 km/h 4.7 km/h 47 % 0 mm 800.00 W/m2 CLR
13:38 -6.9 °C -13 °C 34486.4 hPa NNW 9 km/h 3.1 km/h 49 % 0 mm 798.00 W/m2 CLR
13:44 -6.8 °C -13.2 °C 34486.4 hPa NNW 10.3 km/h 5.1 km/h 48 % 0 mm 791.00 W/m2 CLR
13:49 -6.8 °C -13.3 °C 34483 hPa North 10.3 km/h 4.7 km/h 47 % 0 mm 796.00 W/m2 CLR
13:54 -6.6 °C -13.3 °C 34483 hPa North 11.9 km/h 8.5 km/h 46 % 0 mm 803.00 W/m2 CLR
13:58 -6.7 °C -13.2 °C 34483 hPa North 10.3 km/h 6.3 km/h 47 % 0 mm 791.00 W/m2 CLR
14:04 -6.7 °C -13 °C 34479.6 hPa WNW 10.3 km/h 8.5 km/h 48 % 0 mm 789.00 W/m2 CLR
14:09 -6.7 °C -13 °C 34476.3 hPa NNW 12.9 km/h 9.3 km/h 48 % 0 mm 789.00 W/m2 CLR
14:13 -6.7 °C -12.9 °C 34476.3 hPa NNE 9 km/h 6 km/h 49 % 0 mm 773.00 W/m2 CLR
14:19 -6.3 °C -12.4 °C 34476.3 hPa SW 10.3 km/h 6 km/h 49 % 0 mm 777.00 W/m2 CLR
14:24 -6.3 °C -12.7 °C 34472.9 hPa South 6 km/h 2.1 km/h 48 % 0 mm 798.00 W/m2 CLR
14:29 -6.3 °C -12.7 °C 34472.9 hPa SW 15 km/h 8 km/h 48 % 0 mm 775.00 W/m2 CLR
14:33 -6.3 °C -12.6 °C 34472.9 hPa South 10.3 km/h 6.8 km/h 48 % 0 mm 772.00 W/m2 CLR
14:38 -6.3 °C -12.7 °C 34469.5 hPa SSE 10.3 km/h 6.9 km/h 48 % 0 mm 751.00 W/m2 CLR
14:43 -6.2 °C -12.6 °C 34472.9 hPa West 11.9 km/h 6.9 km/h 48 % 0 mm 759.00 W/m2 CLR
14:48 -6.3 °C -12.4 °C 34472.9 hPa NNW 10.3 km/h 6.4 km/h 49 % 0 mm 758.00 W/m2 CLR
14:53 -6.3 °C -12.6 °C 34469.5 hPa SW 15.6 km/h 11.9 km/h 48 % 0 mm 747.00 W/m2 CLR
14:58 -6.3 °C -12.6 °C 34466.1 hPa SE 17.9 km/h 11.9 km/h 48 % 0 mm 744.00 W/m2 CLR
15:03 -6.4 °C -12.7 °C 34466.1 hPa SE 9 km/h 4.7 km/h 48 % 0 mm 754.00 W/m2 CLR
15:08 -6.3 °C -12.6 °C 34466.1 hPa SSE 10.3 km/h 6 km/h 49 % 0 mm 749.00 W/m2 CLR
15:13 -6.3 °C -12.6 °C 34462.7 hPa South 15.6 km/h 9.3 km/h 48 % 0 mm 744.00 W/m2 CLR
15:19 -6.2 °C -12.7 °C 34462.7 hPa SSE 15 km/h 11.4 km/h 47 % 0 mm 707.00 W/m2 CLR
15:23 -6.2 °C -12.7 °C 34462.7 hPa WSW 10.3 km/h 6 km/h 47 % 0 mm 728.00 W/m2 CLR
15:28 -6 °C -12.6 °C 34462.7 hPa SSW 20.8 km/h 10.9 km/h 47 % 0 mm 722.00 W/m2 CLR
15:34 -6 °C -12.9 °C 34462.7 hPa SW 20.9 km/h 14.2 km/h 45 % 0 mm 726.00 W/m2 CLR
15:38 -6 °C -12.7 °C 34462.7 hPa WNW 12.9 km/h 8.9 km/h 46 % 0 mm 728.00 W/m2 CLR
15:43 -5.8 °C -12.9 °C 34462.7 hPa SW 18.2 km/h 11.4 km/h 44 % 0 mm 675.00 W/m2 CLR
15:49 -5.8 °C -12.9 °C 34459.3 hPa SW 10.3 km/h 7.6 km/h 44 % 0 mm 693.00 W/m2 CLR
15:54 -5.7 °C -13 °C 34459.3 hPa NW 10.3 km/h 6 km/h 43 % 0 mm 684.00 W/m2 CLR
15:58 -5.8 °C -13.1 °C 34459.3 hPa SW 15.6 km/h 8.5 km/h 43 % 0 mm 670.00 W/m2 CLR
16:04 -5.7 °C -13.4 °C 34455.9 hPa WNW 10.3 km/h 6.4 km/h 41 % 0 mm 649.00 W/m2 CLR
16:09 -5.7 °C -13.2 °C 34455.9 hPa West 15.6 km/h 11.6 km/h 42 % 0 mm 629.00 W/m2 CLR
16:13 -5.6 °C -13.3 °C 34452.6 hPa SSE 10.3 km/h 6.4 km/h 41 % 0 mm 626.00 W/m2 CLR
16:19 -5.7 °C -13.4 °C 34452.6 hPa West 15.6 km/h 9.7 km/h 41 % 0 mm 622.00 W/m2 CLR
16:24 -5.7 °C -13.8 °C 34452.6 hPa West 12.9 km/h 9.3 km/h 39 % 0 mm 582.00 W/m2 CLR
16:29 -5.7 °C -13.6 °C 34455.9 hPa North 6 km/h 2.9 km/h 40 % 0 mm 313.00 W/m2 CLR
16:33 -5.7 °C -13.6 °C 34452.6 hPa WNW 15.6 km/h 10.3 km/h 40 % 0 mm 584.00 W/m2 CLR
16:39 -5.7 °C -13.6 °C 34445.8 hPa WSW 10.3 km/h 6.9 km/h 40 % 0 mm 573.00 W/m2 CLR
16:44 -5.8 °C -13.2 °C 34445.8 hPa SW 12.9 km/h 3.9 km/h 42 % 0 mm 557.00 W/m2 CLR
16:48 -5.7 °C -13.4 °C 34445.8 hPa WSW 10.3 km/h 4.7 km/h 41 % 0 mm 522.00 W/m2 CLR
16:54 -5.5 °C -13.7 °C 34445.8 hPa SW 9 km/h 3.7 km/h 39 % 0 mm 517.00 W/m2 CLR
16:59 -5.7 °C -13.9 °C 34442.4 hPa SSE 12.9 km/h 8.9 km/h 38 % 0 mm 512.00 W/m2 CLR
17:04 -5.7 °C -14.2 °C 34452.6 hPa South 12.9 km/h 9.8 km/h 37 % 0 mm 501.00 W/m2 CLR
17:08 -5.7 °C -14.2 °C 34449.2 hPa SSW 6 km/h 1.8 km/h 37 % 0 mm 490.00 W/m2 CLR
17:13 -5.7 °C -14.4 °C 34449.2 hPa SE 10.3 km/h 6.8 km/h 36 % 0 mm 473.00 W/m2 CLR
17:18 -5.9 °C -14.3 °C 34449.2 hPa SE 9 km/h 4.7 km/h 37 % 0 mm 461.00 W/m2 CLR
17:23 -5.9 °C -14.2 °C 34445.8 hPa North 12.9 km/h 9.7 km/h 38 % 0 mm 454.00 W/m2 CLR
17:28 -6 °C -14.3 °C 34449.2 hPa NNE 9 km/h 3.1 km/h 38 % 0 mm 439.00 W/m2 CLR
17:33 -5.8 °C -14.1 °C 34449.2 hPa SSE 10.3 km/h 6.4 km/h 38 % 0 mm 418.00 W/m2 CLR
17:39 -5.9 °C -14.2 °C 34445.8 hPa SSE 9 km/h 4.2 km/h 38 % 0 mm 410.00 W/m2 CLR
17:43 -5.9 °C -14 °C 34449.2 hPa ESE 10.3 km/h 8.5 km/h 39 % 0 mm 399.00 W/m2 CLR
17:48 -5.8 °C -14.1 °C 34445.8 hPa South 10.3 km/h 5.1 km/h 38 % 0 mm 385.00 W/m2 CLR
17:54 -5.8 °C -14.3 °C 34449.2 hPa SSW 6 km/h 3.9 km/h 37 % 0 mm 214.00 W/m2 CLR
17:58 -5.8 °C -14.5 °C 34449.2 hPa SSW 12.9 km/h 6.8 km/h 36 % 0 mm 364.00 W/m2 CLR
18:03 -5.8 °C -14.3 °C 34449.2 hPa SE 10.3 km/h 6.8 km/h 37 % 0 mm 352.00 W/m2 CLR
18:09 -5.7 °C -14.5 °C 34449.2 hPa SSE 9 km/h 5 km/h 36 % 0 mm 327.00 W/m2 CLR
18:13 -5.8 °C -14.6 °C 34449.2 hPa SSW 10.3 km/h 3.9 km/h 36 % 0 mm 318.00 W/m2 CLR
18:18 -5.8 °C -14.6 °C 34452.6 hPa SW 9 km/h 2.1 km/h 36 % 0 mm 304.00 W/m2 CLR
18:24 -5.7 °C -14.5 °C 34445.8 hPa WSW 6 km/h 3.1 km/h 36 % 0 mm 248.00 W/m2 CLR
18:29 -5.7 °C -14.5 °C 34445.8 hPa SE 6 km/h 3.9 km/h 36 % 0 mm 269.00 W/m2 CLR
18:34 -5.8 °C -14.1 °C 34445.8 hPa SE 9 km/h 5.1 km/h 38 % 0 mm 251.00 W/m2 CLR
18:39 -5.9 °C -14.4 °C 34445.8 hPa SE 9 km/h 6.3 km/h 37 % 0 mm 232.00 W/m2 CLR
18:44 -5.9 °C -14.4 °C 34445.8 hPa SE 10.3 km/h 8 km/h 37 % 0 mm 218.00 W/m2 CLR
18:49 -6 °C -14.5 °C 34445.8 hPa SE 9 km/h 5 km/h 37 % 0 mm 193.00 W/m2 CLR
18:54 -6 °C -14.5 °C 34445.8 hPa SE 9 km/h 5.5 km/h 37 % 0 mm 176.00 W/m2 CLR
18:58 -6.1 °C -14.1 °C 34445.8 hPa SE 9 km/h 5.1 km/h 39 % 0 mm 167.00 W/m2 CLR
19:03 -6 °C -14.1 °C 34445.8 hPa SE 9 km/h 6 km/h 39 % 0 mm 151.00 W/m2 CLR
19:08 -6.1 °C -14.3 °C 34442.4 hPa SE 9 km/h 6.4 km/h 38 % 0 mm 132.00 W/m2 CLR
19:13 -6.1 °C -14.1 °C 34442.4 hPa SE 10.3 km/h 7.2 km/h 39 % 0 mm 118.00 W/m2 CLR
19:18 -6.2 °C -14.2 °C 34439 hPa SE 10.3 km/h 8 km/h 39 % 0 mm 104.00 W/m2 CLR
19:23 -6.2 °C -14.2 °C 34442.4 hPa SE 9 km/h 4.2 km/h 39 % 0 mm 88.00 W/m2 CLR
19:29 -6.2 °C -14.3 °C 34445.8 hPa SE 9 km/h 5.6 km/h 39 % 0 mm 72.00 W/m2 CLR
19:33 -6.3 °C -14.3 °C 34449.2 hPa SE 9 km/h 6.3 km/h 39 % 0 mm 51.00 W/m2 CLR
19:38 -6.3 °C -14.4 °C 34445.8 hPa SE 6 km/h 2.6 km/h 39 % 0 mm 39.00 W/m2 CLR
19:44 -6.4 °C -14.4 °C 34449.2 hPa SE 6 km/h 3.1 km/h 39 % 0 mm 26.00 W/m2 CLR
19:49 -6.5 °C -14.1 °C 34449.2 hPa SE 3.1 km/h 2.1 km/h 41 % 0 mm 14.00 W/m2 CLR
19:53 -6.6 °C -14 °C 34452.6 hPa SE 6 km/h 2.6 km/h 42 % 0 mm 11.00 W/m2 CLR
19:59 -6.7 °C -13.7 °C 34459.3 hPa SE 6 km/h 2.9 km/h 44 % 0 mm 7.00 W/m2 CLR
20:03 -6.8 °C -13.6 °C 34459.3 hPa SE 6 km/h 2.6 km/h 45 % 0 mm 5.00 W/m2 CLR
20:08 -6.9 °C -13.7 °C 34462.7 hPa SE 6 km/h 2.6 km/h 45 % 0 mm 0.00 W/m2 CLR
20:11 -6.9 °C -13.6 °C 34462.7 hPa SE 6 km/h 2.6 km/h 46 % 0 mm 0.00 W/m2 CLR
20:23 -7.2 °C -13.8 °C 34466.1 hPa SE 6 km/h 2.9 km/h 46 % 0 mm 0.00 W/m2 CLR
20:28 -7.2 °C -13.7 °C 34469.5 hPa SE 6 km/h 0.8 km/h 47 % 0 mm 0.00 W/m2 CLR
20:34 -7.3 °C -13.7 °C 34469.5 hPa SE 3.1 km/h 2.1 km/h 47 % 0 mm 0.00 W/m2 CLR
20:39 -7.3 °C -13.6 °C 34472.9 hPa Calm     48 % 0 mm 0.00 W/m2 CLR
20:43 -7.4 °C -13.7 °C 34472.9 hPa SE 3.1 km/h 1 km/h 48 % 0 mm 0.00 W/m2 CLR
20:49 -7.4 °C -13.6 °C 34476.3 hPa Calm     49 % 0 mm 0.00 W/m2 CLR
20:54 -7.6 °C -13.4 °C 34476.3 hPa Calm     50 % 0 mm 0.00 W/m2 CLR
20:58 -7.6 °C -13.4 °C 34483 hPa Calm     51 % 0 mm 0.00 W/m2 CLR
21:04 -7.7 °C -13.4 °C 34486.4 hPa Calm     51 % 0 mm 0.00 W/m2 CLR
21:09 -7.8 °C -13.5 °C 34489.8 hPa Calm     51 % 0 mm 0.00 W/m2 CLR
21:14 -7.9 °C -13.4 °C 34493.2 hPa Calm     52 % 0 mm 0.00 W/m2 CLR
21:19 -7.9 °C -13.5 °C 34493.2 hPa Calm     52 % 0 mm 0.00 W/m2 CLR
21:23 -8 °C -13.6 °C 34496.6 hPa Calm     52 % 0 mm 0.00 W/m2 CLR
21:28 -8 °C -13.6 °C 34493.2 hPa Calm     52 % 0 mm 0.00 W/m2 CLR
21:33 -8.1 °C -13.6 °C 34496.6 hPa Calm     52 % 0 mm 0.00 W/m2 CLR
21:38 -8.1 °C -13.3 °C 34496.6 hPa Calm     54 % 0 mm 0.00 W/m2 CLR
21:43 -8.2 °C -13.4 °C 34496.6 hPa Calm     54 % 0 mm 0.00 W/m2 CLR
21:49 -8.3 °C -13.5 °C 34500 hPa Calm     54 % 0 mm 0.00 W/m2 CLR
21:53 -8.3 °C -13.6 °C 34496.6 hPa Calm     54 % 0 mm 0.00 W/m2 CLR
21:58 -8.4 °C -13.8 °C 34496.6 hPa Calm     53 % 0 mm 0.00 W/m2 CLR
22:04 -8.4 °C -13.7 °C 34500 hPa Calm     54 % 0 mm 0.00 W/m2 CLR
22:08 -8.4 °C -13.8 °C 34500 hPa Calm     53 % 0 mm 0.00 W/m2 CLR
22:13 -8.4 °C -13.8 °C 34500 hPa Calm     53 % 0 mm 0.00 W/m2 CLR
22:19 -8.4 °C -13.7 °C 34503.3 hPa Calm     54 % 0 mm 0.00 W/m2 CLR
22:24 -8.6 °C -13.5 °C 34506.7 hPa Calm     56 % 0 mm 0.00 W/m2 CLR
22:28 -8.7 °C -13.6 °C 34506.7 hPa Calm     56 % 0 mm 0.00 W/m2 CLR
22:34 -9 °C -13.7 °C 34506.7 hPa Calm     57 % 0 mm 0.00 W/m2 CLR
22:39 -9.2 °C -13.7 °C 34506.7 hPa Calm     58 % 0 mm 0.00 W/m2 CLR
22:44 -9.3 °C -13.7 °C 34506.7 hPa Calm     59 % 0 mm 0.00 W/m2 CLR
22:48 -9.3 °C -13.6 °C 34506.7 hPa Calm     60 % 0 mm 0.00 W/m2 CLR
22:53 -9.3 °C -13.5 °C 34506.7 hPa Calm     61 % 0 mm 0.00 W/m2 CLR
22:58 -9.4 °C -13.5 °C 34506.7 hPa Calm     61 % 0 mm 0.00 W/m2 CLR
23:04 -9.4 °C -13.6 °C 34506.7 hPa Calm     61 % 0 mm 0.00 W/m2 CLR
23:08 -9.5 °C -13.5 °C 34510.1 hPa Calm     62 % 0 mm 0.00 W/m2 CLR
23:13 -9.6 °C -13.7 °C 34510.1 hPa Calm     61 % 0 mm 0.00 W/m2 CLR
23:19 -9.6 °C -13.4 °C 34513.5 hPa Calm     63 % 0 mm 0.00 W/m2 CLR
23:24 -9.6 °C -13.4 °C 34516.9 hPa Calm     63 % 0 mm 0.00 W/m2 CLR
23:28 -9.7 °C -13.4 °C 34520.3 hPa Calm     64 % 0 mm 0.00 W/m2 CLR
23:34 -9.8 °C -13.4 °C 34516.9 hPa Calm     65 % 0 mm 0.00 W/m2 CLR
23:39 -9.8 °C -13.4 °C 34520.3 hPa Calm     65 % 0 mm 0.00 W/m2 CLR
23:44 -9.8 °C -13.3 °C 34520.3 hPa Calm     66 % 0 mm 0.00 W/m2 CLR
23:49 -9.8 °C -13.3 °C 34520.3 hPa Calm     66 % 0 mm 0.00 W/m2 CLR
23:54 -9.9 °C -13.4 °C 34523.7 hPa Calm     66 % 0 mm 0.00 W/m2 CLR
23:58 -9.9 °C -13.3 °C 34520.3 hPa Calm     67 % 0 mm 0.00 W/m2 CLR
Juneau County Weather
Compliments of Weather Underground - 3.5 mb